createdAt,value
2023-04-01T00:00:34.732Z,32.60
2023-04-01T00:01:34.793Z,32.59
2023-04-01T00:02:34.838Z,32.58
2023-04-01T00:03:34.948Z,32.57
2023-04-01T00:04:34.839Z,32.57
2023-04-01T00:05:34.916Z,32.55
2023-04-01T00:06:34.811Z,32.57
2023-04-01T00:07:34.810Z,32.56
2023-04-01T00:08:34.823Z,32.57
2023-04-01T00:09:34.807Z,32.55
2023-04-01T00:10:34.873Z,32.53
2023-04-01T00:11:34.832Z,32.51
2023-04-01T00:12:34.914Z,32.52
2023-04-01T00:13:34.894Z,32.51
2023-04-01T00:14:34.872Z,32.52
2023-04-01T00:15:34.863Z,32.54
2023-04-01T00:16:34.928Z,32.52
2023-04-01T00:17:35.007Z,32.52
2023-04-01T00:18:34.914Z,32.51
2023-04-01T00:19:34.956Z,32.53
2023-04-01T00:20:34.965Z,32.48
2023-04-01T00:21:35.006Z,32.51
2023-04-01T00:22:34.985Z,32.48
2023-04-01T00:23:35.002Z,32.46
2023-04-01T00:24:34.977Z,32.48
2023-04-01T00:25:35.124Z,32.46
2023-04-01T00:26:35.008Z,32.47
2023-04-01T00:27:35.021Z,32.48
2023-04-01T00:28:35.028Z,32.48
2023-04-01T00:29:35.070Z,32.45
2023-04-01T00:30:35.092Z,32.45
2023-04-01T00:31:35.108Z,32.42
2023-04-01T00:32:35.119Z,32.45
2023-04-01T00:33:35.096Z,32.43
2023-04-01T00:34:35.135Z,32.43
2023-04-01T00:35:35.122Z,32.44
2023-04-01T00:36:35.140Z,32.44
2023-04-01T00:37:35.153Z,32.42
2023-04-01T00:38:35.189Z,32.40
2023-04-01T00:39:35.234Z,32.37
2023-04-01T00:40:35.198Z,32.39
2023-04-01T00:41:35.198Z,32.37
2023-04-01T00:42:35.253Z,32.39
2023-04-01T00:43:35.272Z,32.40
2023-04-01T00:44:35.278Z,32.40
2023-04-01T00:45:35.276Z,32.38
2023-04-01T00:46:35.375Z,32.35
2023-04-01T00:48:20.429Z,32.38
2023-04-01T00:49:20.441Z,32.37
2023-04-01T00:50:20.426Z,32.37
2023-04-01T00:51:20.406Z,32.37
2023-04-01T00:52:20.412Z,32.34
2023-04-01T00:53:20.388Z,32.37
2023-04-01T00:54:20.391Z,32.37
2023-04-01T00:55:20.371Z,32.38
2023-04-01T00:56:20.376Z,32.35
2023-04-01T00:57:20.391Z,32.33
2023-04-01T00:58:20.375Z,32.33
2023-04-01T00:59:20.365Z,32.32
2023-04-01T01:00:20.357Z,32.31
2023-04-01T01:01:20.352Z,32.29
2023-04-01T01:02:20.383Z,32.32
2023-04-01T01:03:20.371Z,32.32
2023-04-01T01:04:20.330Z,32.27
2023-04-01T01:05:20.287Z,32.28
2023-04-01T01:06:20.301Z,32.26
2023-04-01T01:07:20.309Z,32.26
2023-04-01T01:08:20.298Z,32.27
2023-04-01T01:09:20.272Z,32.25
2023-04-01T01:10:20.272Z,32.27
2023-04-01T01:11:20.603Z,32.26
2023-04-01T01:12:20.277Z,32.25
2023-04-01T01:13:20.280Z,32.21
2023-04-01T01:14:20.284Z,32.20
2023-04-01T01:15:20.241Z,32.21
2023-04-01T01:16:20.274Z,32.23
2023-04-01T01:17:20.279Z,32.23
2023-04-01T01:18:20.213Z,32.22
2023-04-01T01:19:20.224Z,32.23
2023-04-01T01:20:25.918Z,32.22
2023-04-01T01:21:21.203Z,32.21
2023-04-01T01:22:20.186Z,32.19
2023-04-01T01:23:20.216Z,32.18
2023-04-01T01:24:20.214Z,32.20
2023-04-01T01:25:20.208Z,32.17
2023-04-01T01:26:20.165Z,32.19
2023-04-01T01:27:20.169Z,32.19
2023-04-01T01:28:20.178Z,32.15
2023-04-01T01:29:20.185Z,32.17
2023-04-01T01:30:20.164Z,32.16
2023-04-01T01:31:20.199Z,32.17
2023-04-01T01:32:20.168Z,32.19
2023-04-01T01:33:20.171Z,32.15
2023-04-01T01:34:20.162Z,32.14
2023-04-01T01:35:20.135Z,32.15
2023-04-01T01:36:20.278Z,32.14
2023-04-01T01:37:20.442Z,32.13
2023-04-01T01:38:20.323Z,32.09
2023-04-01T01:39:20.099Z,32.11
2023-04-01T01:40:20.105Z,32.13
2023-04-01T01:41:20.333Z,32.12
2023-04-01T01:42:20.066Z,32.11
2023-04-01T01:43:20.073Z,32.12
2023-04-01T01:44:20.102Z,32.10
2023-04-01T01:45:20.063Z,32.09
2023-04-01T01:46:20.106Z,32.05
2023-04-01T01:47:20.112Z,32.04
2023-04-01T01:48:20.124Z,32.05
2023-04-01T01:49:20.302Z,32.05
2023-04-01T01:50:20.161Z,32.06
2023-04-01T01:51:20.197Z,32.03
2023-04-01T01:52:20.202Z,32.03
2023-04-01T01:53:20.209Z,32.06
2023-04-01T01:54:20.259Z,32.06
2023-04-01T01:55:20.298Z,32.04
2023-04-01T01:56:20.286Z,32.03
2023-04-01T01:57:20.315Z,32.03
2023-04-01T01:58:20.307Z,32.05
2023-04-01T01:59:20.333Z,32.02
2023-04-01T02:00:20.356Z,32.01
2023-04-01T02:01:20.443Z,32.04
2023-04-01T02:02:20.373Z,32.03
2023-04-01T02:03:20.425Z,32.02
2023-04-01T02:04:20.480Z,32.02
2023-04-01T02:05:20.638Z,32.00
2023-04-01T02:06:20.490Z,32.00
2023-04-01T02:07:20.501Z,31.98
2023-04-01T02:08:20.517Z,31.97
2023-04-01T02:09:20.562Z,31.98
2023-04-01T02:10:20.565Z,31.97
2023-04-01T02:11:20.599Z,31.98
2023-04-01T02:12:20.553Z,31.95
2023-04-01T02:13:20.611Z,31.96
2023-04-01T02:14:20.605Z,31.94
2023-04-01T02:15:20.645Z,31.92
2023-04-01T02:16:20.735Z,31.94
2023-04-01T02:17:20.824Z,31.94
2023-04-01T02:18:20.698Z,31.94
2023-04-01T02:19:20.752Z,31.93
2023-04-01T02:20:20.754Z,31.92
2023-04-01T02:21:20.754Z,31.90
2023-04-01T02:22:20.864Z,31.91
2023-04-01T02:23:20.882Z,31.90
2023-04-01T02:24:20.818Z,31.91
2023-04-01T02:25:20.822Z,31.93
2023-04-01T02:26:20.847Z,31.93
2023-04-01T02:27:20.885Z,31.91
2023-04-01T02:28:20.892Z,31.90
2023-04-01T02:29:20.974Z,31.89
2023-04-01T02:30:20.893Z,31.88
2023-04-01T02:31:20.956Z,31.89
2023-04-01T02:32:20.954Z,31.88
2023-04-01T02:33:20.988Z,31.87
2023-04-01T02:34:20.978Z,31.88
2023-04-01T02:35:21.014Z,31.85
2023-04-01T02:36:21.115Z,31.87
2023-04-01T02:37:21.023Z,31.85
2023-04-01T02:38:21.124Z,31.86
2023-04-01T02:39:21.085Z,31.83
2023-04-01T02:40:21.106Z,31.83
2023-04-01T02:41:21.163Z,31.82
2023-04-01T02:42:21.114Z,31.82
2023-04-01T02:43:21.184Z,31.84
2023-04-01T02:44:21.194Z,31.80
2023-04-01T02:45:21.202Z,31.80
2023-04-01T02:46:21.343Z,31.80
2023-04-01T02:47:21.347Z,31.78
2023-04-01T02:48:21.316Z,31.77
2023-04-01T02:49:21.340Z,31.81
2023-04-01T02:50:21.343Z,31.80
2023-04-01T02:51:21.348Z,31.79
2023-04-01T02:52:21.368Z,31.78
2023-04-01T02:53:21.433Z,31.79
2023-04-01T02:54:21.468Z,31.80
2023-04-01T02:55:21.479Z,31.79
2023-04-01T02:56:21.522Z,31.78
2023-04-01T02:57:21.580Z,31.77
2023-04-01T02:58:21.532Z,31.74
2023-04-01T02:59:21.643Z,31.74
2023-04-01T03:00:21.598Z,31.74
2023-04-01T03:01:21.626Z,31.75
2023-04-01T03:02:21.699Z,31.77
2023-04-01T03:03:21.669Z,31.79
2023-04-01T03:04:21.741Z,31.73
2023-04-01T03:05:21.760Z,31.71
2023-04-01T03:06:21.697Z,31.72
2023-04-01T03:07:21.718Z,31.74
2023-04-01T03:08:21.754Z,31.71
2023-04-01T03:09:21.800Z,31.70
2023-04-01T03:10:21.807Z,31.67
2023-04-01T03:11:21.839Z,31.69
2023-04-01T03:12:21.842Z,31.68
2023-04-01T03:13:21.868Z,31.69
2023-04-01T03:14:21.855Z,31.69
2023-04-01T03:15:21.906Z,31.68
2023-04-01T03:16:21.982Z,31.67
2023-04-01T03:17:21.982Z,31.66
2023-04-01T03:18:21.945Z,31.64
2023-04-01T03:19:21.977Z,31.62
2023-04-01T03:20:21.976Z,31.62
2023-04-01T03:21:21.985Z,31.64
2023-04-01T03:22:22.049Z,31.66
2023-04-01T03:23:22.080Z,31.66
2023-04-01T03:24:22.099Z,31.65
2023-04-01T03:25:22.077Z,31.64
2023-04-01T03:26:22.108Z,31.61
2023-04-01T03:27:22.115Z,31.63
2023-04-01T03:28:22.110Z,31.63
2023-04-01T03:29:22.207Z,31.63
2023-04-01T03:30:22.303Z,31.62
2023-04-01T03:31:23.745Z,31.61
2023-04-01T03:32:22.223Z,31.60
2023-04-01T03:33:22.205Z,31.62
2023-04-01T03:34:22.218Z,31.60
2023-04-01T03:35:22.267Z,31.61
2023-04-01T03:36:22.285Z,31.57
2023-04-01T03:37:22.280Z,31.59
2023-04-01T03:38:22.287Z,31.60
2023-04-01T03:39:22.286Z,31.59
2023-04-01T03:40:22.325Z,31.58
2023-04-01T03:41:22.367Z,31.59
2023-04-01T03:42:22.369Z,31.57
2023-04-01T03:43:22.396Z,31.56
2023-04-01T03:44:22.393Z,31.58
2023-04-01T03:45:22.434Z,31.55
2023-04-01T03:46:22.574Z,31.57
2023-04-01T03:47:22.501Z,31.56
2023-04-01T03:48:22.520Z,31.57
2023-04-01T03:49:22.526Z,31.56
2023-04-01T03:50:22.572Z,31.52
2023-04-01T03:51:22.573Z,31.53
2023-04-01T03:52:22.629Z,31.54
2023-04-01T03:53:22.616Z,31.54
2023-04-01T03:55:29.273Z,31.56
2023-04-01T03:56:29.242Z,31.52
2023-04-01T03:57:29.393Z,31.51
2023-04-01T03:58:29.222Z,31.51
2023-04-01T03:59:29.254Z,31.50
2023-04-01T04:00:29.218Z,31.48
2023-04-01T04:01:29.217Z,31.48
2023-04-01T04:02:29.261Z,31.49
2023-04-01T04:03:29.390Z,31.49
2023-04-01T04:04:29.246Z,31.48
2023-04-01T04:05:29.204Z,31.48
2023-04-01T04:06:29.248Z,31.45
2023-04-01T04:07:29.219Z,31.45
2023-04-01T04:08:29.190Z,31.46
2023-04-01T04:09:29.239Z,31.46
2023-04-01T04:10:29.252Z,31.45
2023-04-01T04:11:29.187Z,31.46
2023-04-01T04:12:29.171Z,31.43
2023-04-01T04:13:29.196Z,31.43
2023-04-01T04:14:29.162Z,31.45
2023-04-01T04:15:29.169Z,31.44
2023-04-01T04:16:29.296Z,31.44
2023-04-01T04:17:29.125Z,31.42
2023-04-01T04:18:29.121Z,31.43
2023-04-01T04:19:29.136Z,31.41
2023-04-01T04:20:29.141Z,31.43
2023-04-01T04:21:29.114Z,31.42
2023-04-01T04:22:29.130Z,31.39
2023-04-01T04:23:29.120Z,31.43
2023-04-01T04:24:29.112Z,31.39
2023-04-01T04:25:29.084Z,31.40
2023-04-01T04:26:29.075Z,31.40
2023-04-01T04:27:29.054Z,31.41
2023-04-01T04:28:29.068Z,31.39
2023-04-01T04:29:29.046Z,31.39
2023-04-01T04:30:29.067Z,31.38
2023-04-01T04:31:29.082Z,31.38
2023-04-01T04:32:30.069Z,31.36
2023-04-01T04:33:29.059Z,31.37
2023-04-01T04:34:29.035Z,31.37
2023-04-01T04:35:29.081Z,31.37
2023-04-01T04:36:29.019Z,31.35
2023-04-01T04:37:29.008Z,31.36
2023-04-01T04:38:29.012Z,31.37
2023-04-01T04:39:29.008Z,31.35
2023-04-01T04:40:28.971Z,31.33
2023-04-01T04:41:28.972Z,31.32
2023-04-01T04:42:28.984Z,31.31
2023-04-01T04:43:28.954Z,31.34
2023-04-01T04:44:28.921Z,31.31
2023-04-01T04:45:28.929Z,31.30
2023-04-01T04:46:28.985Z,31.32
2023-04-01T04:47:29.043Z,31.32
2023-04-01T04:48:28.913Z,31.30
2023-04-01T04:49:28.900Z,31.32
2023-04-01T04:50:28.898Z,31.33
2023-04-01T04:51:28.881Z,31.30
2023-04-01T04:52:28.901Z,31.31
2023-04-01T04:53:28.924Z,31.31
2023-04-01T04:54:28.976Z,31.30
2023-04-01T04:55:28.958Z,31.32
2023-04-01T04:56:28.982Z,31.30
2023-04-01T04:57:29.060Z,31.28
2023-04-01T04:58:29.050Z,31.28
2023-04-01T04:59:29.100Z,31.29
2023-04-01T05:00:29.074Z,31.27
2023-04-01T05:01:29.136Z,31.27
2023-04-01T05:02:29.179Z,31.27
2023-04-01T05:03:29.248Z,31.29
2023-04-01T05:04:29.222Z,31.26
2023-04-01T05:05:29.238Z,31.27
2023-04-01T05:06:29.281Z,31.26
2023-04-01T05:07:29.269Z,31.25
2023-04-01T05:08:29.322Z,31.24
2023-04-01T05:09:29.358Z,31.23
2023-04-01T05:10:29.377Z,31.23
2023-04-01T05:11:29.418Z,31.22
2023-04-01T05:12:29.455Z,31.22
2023-04-01T05:13:29.463Z,31.23
2023-04-01T05:14:29.502Z,31.22
2023-04-01T05:15:29.506Z,31.23
2023-04-01T05:16:29.547Z,31.22
2023-04-01T05:17:29.621Z,31.20
2023-04-01T05:18:29.590Z,31.21
2023-04-01T05:19:29.644Z,31.22
2023-04-01T05:20:29.656Z,31.20
2023-04-01T05:21:29.688Z,31.20
2023-04-01T05:22:29.695Z,31.20
2023-04-01T05:23:29.737Z,31.22
2023-04-01T05:24:29.782Z,31.20
2023-04-01T05:25:29.846Z,31.20
2023-04-01T05:26:29.826Z,31.20
2023-04-01T05:27:29.869Z,31.19
2023-04-01T05:28:29.873Z,31.19
2023-04-01T05:29:29.915Z,31.19
2023-04-01T05:30:29.961Z,31.20
2023-04-01T05:31:30.020Z,31.16
2023-04-01T05:32:30.042Z,31.16
2023-04-01T05:33:30.059Z,31.17
2023-04-01T05:34:30.069Z,31.18
2023-04-01T05:35:30.152Z,31.17
2023-04-01T05:36:30.121Z,31.15
2023-04-01T05:37:30.143Z,31.14
2023-04-01T05:38:30.183Z,31.16
2023-04-01T05:39:30.211Z,31.14
2023-04-01T05:40:30.277Z,31.12
2023-04-01T05:41:30.277Z,31.13
2023-04-01T05:42:30.308Z,31.14
2023-04-01T05:43:30.334Z,31.12
2023-04-01T05:44:30.330Z,31.13
2023-04-01T05:45:30.408Z,31.13
2023-04-01T05:46:30.418Z,31.12
2023-04-01T05:47:30.460Z,31.10
2023-04-01T05:48:30.446Z,31.09
2023-04-01T05:49:30.457Z,31.10
2023-04-01T05:50:30.496Z,31.09
2023-04-01T05:51:30.533Z,31.06
2023-04-01T05:52:30.546Z,31.08
2023-04-01T05:53:30.553Z,31.09
2023-04-01T05:54:30.598Z,31.06
2023-04-01T05:55:30.746Z,31.08
2023-04-01T05:56:30.635Z,31.09
2023-04-01T05:57:30.707Z,31.08
2023-04-01T05:58:30.667Z,31.06
2023-04-01T05:59:30.713Z,31.03
2023-04-01T06:00:30.694Z,31.05
2023-04-01T06:01:30.737Z,31.02
2023-04-01T06:02:30.830Z,31.04
2023-04-01T06:03:30.957Z,31.02
2023-04-01T06:04:30.894Z,31.03
2023-04-01T06:05:30.905Z,31.02
2023-04-01T06:06:30.855Z,31.00
2023-04-01T06:07:30.889Z,30.99
2023-04-01T06:08:30.938Z,30.96
2023-04-01T06:09:30.901Z,30.97
2023-04-01T06:10:30.936Z,30.98
2023-04-01T06:11:30.946Z,30.97
2023-04-01T06:12:30.966Z,30.97
2023-04-01T06:13:30.969Z,30.98
2023-04-01T06:14:31.043Z,30.94
2023-04-01T06:15:31.453Z,30.95
2023-04-01T06:16:31.080Z,30.93
2023-04-01T06:17:31.051Z,30.89
2023-04-01T06:18:31.076Z,30.89
2023-04-01T06:19:31.079Z,30.86
2023-04-01T06:20:31.101Z,30.90
2023-04-01T06:21:31.110Z,30.86
2023-04-01T06:22:31.129Z,30.84
2023-04-01T06:23:31.157Z,30.86
2023-04-01T06:24:31.145Z,30.84
2023-04-01T06:25:31.435Z,30.80
2023-04-01T06:26:31.185Z,30.81
2023-04-01T06:27:31.165Z,30.81
2023-04-01T06:28:31.203Z,30.77
2023-04-01T06:29:31.186Z,30.80
2023-04-01T06:30:31.234Z,30.78
2023-04-01T06:31:31.289Z,30.77
2023-04-01T06:32:31.514Z,30.81
2023-04-01T06:33:31.329Z,30.78
2023-04-01T06:34:31.295Z,30.79
2023-04-01T06:35:31.563Z,30.77
2023-04-01T06:36:31.343Z,30.75
2023-04-01T06:37:31.265Z,30.77
2023-04-01T06:38:31.278Z,30.79
2023-04-01T06:39:31.302Z,30.75
2023-04-01T06:40:31.322Z,30.78
2023-04-01T06:41:31.339Z,30.75
2023-04-01T06:42:31.322Z,30.75
2023-04-01T06:43:31.355Z,30.74
2023-04-01T06:44:31.358Z,30.72
2023-04-01T06:45:31.552Z,30.74
2023-04-01T06:46:31.543Z,30.72
2023-04-01T06:47:31.408Z,30.71
2023-04-01T06:48:31.427Z,30.70
2023-04-01T06:49:31.408Z,30.67
2023-04-01T06:50:31.452Z,30.67
2023-04-01T06:51:31.415Z,30.66
2023-04-01T06:52:31.427Z,30.65
2023-04-01T06:53:31.441Z,30.62
2023-04-01T06:54:31.419Z,30.62
2023-04-01T06:55:31.695Z,30.59
2023-04-01T06:56:31.458Z,30.58
2023-04-01T06:57:31.523Z,30.58
2023-04-01T06:58:31.474Z,30.56
2023-04-01T06:59:31.461Z,30.57
2023-04-01T07:00:31.687Z,30.54
2023-04-01T07:01:31.509Z,30.54
2023-04-01T07:02:31.478Z,30.53
2023-04-01T07:03:31.483Z,30.55
2023-04-01T07:04:31.493Z,30.55
2023-04-01T07:05:32.030Z,30.54
2023-04-01T07:06:31.476Z,30.54
2023-04-01T07:07:31.492Z,30.54
2023-04-01T07:08:31.479Z,30.52
2023-04-01T07:09:31.485Z,30.53
2023-04-01T07:10:31.510Z,30.56
2023-04-01T07:11:31.462Z,30.57
2023-04-01T07:12:31.476Z,30.57
2023-04-01T07:13:31.537Z,30.58
2023-04-01T07:14:31.517Z,30.57
2023-04-01T07:15:31.855Z,30.56
2023-04-01T07:16:31.538Z,30.57
2023-04-01T07:17:31.589Z,30.58
2023-04-01T07:18:31.512Z,30.58
2023-04-01T07:19:31.552Z,30.55
2023-04-01T07:20:31.556Z,30.53
2023-04-01T07:21:32.790Z,30.55
2023-04-01T07:22:31.575Z,30.54
2023-04-01T07:23:32.570Z,30.51
2023-04-01T07:24:31.604Z,30.53
2023-04-01T07:25:31.812Z,30.50
2023-04-01T07:26:31.669Z,30.49
2023-04-01T07:27:31.727Z,30.47
2023-04-01T07:28:31.752Z,30.45
2023-04-01T07:29:31.799Z,30.43
2023-04-01T07:30:31.887Z,30.39
2023-04-01T07:31:31.970Z,30.40
2023-04-01T07:32:32.858Z,30.40
2023-04-01T07:33:32.009Z,30.40
2023-04-01T07:34:32.099Z,30.38
2023-04-01T07:35:32.410Z,30.34
2023-04-01T07:36:32.239Z,30.37
2023-04-01T07:37:32.289Z,30.37
2023-04-01T07:38:32.388Z,30.38
2023-04-01T07:39:32.410Z,30.40
2023-04-01T07:40:32.449Z,30.37
2023-04-01T07:41:32.578Z,30.34
2023-04-01T07:42:32.593Z,30.35
2023-04-01T07:43:32.638Z,30.33
2023-04-01T07:44:32.674Z,30.38
2023-04-01T07:45:33.036Z,30.38
2023-04-01T07:46:32.830Z,30.33
2023-04-01T07:47:32.904Z,30.37
2023-04-01T07:48:32.916Z,30.40
2023-04-01T07:49:33.015Z,30.39
2023-04-01T07:50:33.092Z,30.39
2023-04-01T07:51:33.090Z,30.41
2023-04-01T07:52:33.179Z,30.44
2023-04-01T07:53:33.258Z,30.41
2023-04-01T07:54:33.315Z,30.40
2023-04-01T07:55:33.451Z,30.40
2023-04-01T07:56:33.412Z,30.41
2023-04-01T07:57:33.483Z,30.45
2023-04-01T07:58:33.524Z,30.46
2023-04-01T07:59:33.559Z,30.44
2023-04-01T08:00:33.632Z,30.38
2023-04-01T08:01:33.738Z,30.34
2023-04-01T08:02:33.825Z,30.29
2023-04-01T08:03:33.941Z,30.30
2023-04-01T08:04:33.886Z,30.31
2023-04-01T08:05:34.305Z,30.32
2023-04-01T08:06:34.000Z,30.30
2023-04-01T08:07:34.038Z,30.21
2023-04-01T08:08:34.119Z,30.21
2023-04-01T08:09:34.126Z,30.15
2023-04-01T08:10:34.181Z,30.25
2023-04-01T08:11:34.238Z,30.21
2023-04-01T08:12:34.310Z,30.22
2023-04-01T08:13:34.322Z,30.18
2023-04-01T08:14:34.374Z,30.19
2023-04-01T08:15:34.626Z,30.17
2023-04-01T08:16:34.481Z,30.00
2023-04-01T08:17:34.517Z,30.28
2023-04-01T08:18:34.512Z,29.88
2023-04-01T08:19:34.528Z,29.97
2023-04-01T08:20:34.609Z,29.97
2023-04-01T08:21:34.595Z,29.93
2023-04-01T08:22:34.592Z,30.02
2023-04-01T08:23:34.637Z,30.10
2023-04-01T08:24:46.479Z,29.46
2023-04-01T08:25:35.879Z,29.90
2023-04-01T08:26:34.646Z,29.94
2023-04-01T08:27:34.705Z,29.73
2023-04-01T08:28:34.644Z,30.21
2023-04-01T08:29:34.637Z,30.35
2023-04-01T08:30:34.622Z,30.28
2023-04-01T08:31:34.615Z,30.33
2023-04-01T08:32:34.644Z,30.31
2023-04-01T08:33:34.605Z,30.40
2023-04-01T08:34:34.615Z,30.28
2023-04-01T08:35:36.869Z,30.27
2023-04-01T08:36:34.625Z,30.24
2023-04-01T08:37:34.596Z,30.21
2023-04-01T08:38:34.594Z,30.13
2023-04-01T08:39:34.600Z,30.17
2023-04-01T08:40:34.571Z,30.04
2023-04-01T08:41:34.553Z,29.96
2023-04-01T08:42:34.559Z,29.99
2023-04-01T08:43:34.558Z,29.98
2023-04-01T08:44:34.544Z,30.04
2023-04-01T08:45:34.766Z,30.03
2023-04-01T08:46:34.528Z,29.89
2023-04-01T08:47:34.522Z,29.98
2023-04-01T08:48:34.545Z,29.92
2023-04-01T08:49:34.481Z,29.86
2023-04-01T08:50:34.500Z,29.93
2023-04-01T08:51:34.478Z,29.75
2023-04-01T08:52:34.501Z,29.84
2023-04-01T08:53:34.508Z,29.83
2023-04-01T08:54:34.502Z,29.77
2023-04-01T08:55:34.789Z,29.76
2023-04-01T08:56:34.424Z,29.67
2023-04-01T08:57:34.520Z,29.72
2023-04-01T08:58:34.431Z,29.74
2023-04-01T08:59:34.454Z,29.68
2023-04-01T09:00:34.438Z,29.65
2023-04-01T09:01:34.423Z,29.64
2023-04-01T09:02:34.533Z,29.71
2023-04-01T09:03:34.451Z,29.79
2023-04-01T09:04:34.537Z,29.71
2023-04-01T09:05:34.677Z,29.68
2023-04-01T09:06:34.529Z,29.65
2023-04-01T09:07:34.549Z,29.57
2023-04-01T09:08:34.669Z,29.54
2023-04-01T09:09:34.680Z,29.58
2023-04-01T09:10:34.726Z,29.54
2023-04-01T09:11:34.769Z,29.53
2023-04-01T09:12:34.856Z,29.54
2023-04-01T09:13:34.870Z,29.58
2023-04-01T09:14:34.860Z,29.53
2023-04-01T09:15:35.207Z,29.52
2023-04-01T09:16:35.014Z,29.44
2023-04-01T09:17:35.013Z,29.44
2023-04-01T09:18:35.006Z,29.50
2023-04-01T09:19:35.051Z,29.50
2023-04-01T09:20:35.126Z,29.46
2023-04-01T09:21:35.129Z,29.44
2023-04-01T09:22:35.165Z,29.48
2023-04-01T09:23:35.205Z,29.43
2023-04-01T09:24:35.254Z,29.37
2023-04-01T09:25:35.627Z,29.38
2023-04-01T09:26:35.350Z,29.39
2023-04-01T09:27:35.353Z,29.46
2023-04-01T09:28:35.382Z,29.42
2023-04-01T09:29:35.391Z,29.40
2023-04-01T09:30:35.434Z,29.34
2023-04-01T09:31:35.519Z,29.33
2023-04-01T09:32:35.560Z,29.34
2023-04-01T09:33:35.574Z,29.38
2023-04-01T09:34:35.537Z,29.31
2023-04-01T09:35:35.869Z,29.30
2023-04-01T09:36:35.631Z,29.30
2023-04-01T09:37:35.611Z,29.33
2023-04-01T09:38:35.629Z,29.29
2023-04-01T09:39:35.672Z,29.22
2023-04-01T09:40:35.687Z,29.25
2023-04-01T09:41:35.742Z,29.28
2023-04-01T09:42:35.840Z,29.24
2023-04-01T09:43:35.751Z,29.23
2023-04-01T09:44:35.809Z,29.27
2023-04-01T09:45:35.841Z,29.24
2023-04-01T09:46:35.863Z,29.27
2023-04-01T09:47:35.888Z,29.21
2023-04-01T09:48:35.900Z,29.20
2023-04-01T09:49:35.889Z,29.21
2023-04-01T09:50:35.903Z,29.19
2023-04-01T09:51:36.010Z,29.21
2023-04-01T09:52:35.976Z,29.24
2023-04-01T09:53:36.031Z,29.23
2023-04-01T09:54:36.090Z,29.17
2023-04-01T09:55:36.045Z,29.16
2023-04-01T09:56:36.051Z,29.20
2023-04-01T09:57:36.110Z,29.20
2023-04-01T09:58:36.088Z,29.21
2023-04-01T09:59:37.129Z,29.27
2023-04-01T10:00:36.137Z,29.23
2023-04-01T10:01:36.191Z,29.24
2023-04-01T10:02:36.161Z,29.17
2023-04-01T10:03:36.094Z,29.17
2023-04-01T10:04:36.072Z,29.19
2023-04-01T10:05:36.338Z,29.23
2023-04-01T10:06:36.068Z,29.06
2023-04-01T10:07:36.059Z,29.22
2023-04-01T10:08:36.033Z,29.19
2023-04-01T10:09:36.030Z,29.12
2023-04-01T10:10:36.094Z,29.25
2023-04-01T10:11:36.029Z,29.27
2023-04-01T10:12:36.011Z,29.26
2023-04-01T10:13:36.005Z,29.26
2023-04-01T10:14:36.017Z,29.35
2023-04-01T10:15:36.319Z,29.17
2023-04-01T10:16:36.064Z,29.19
2023-04-01T10:17:36.093Z,29.10
2023-04-01T10:18:36.102Z,29.23
2023-04-01T10:19:36.128Z,29.32
2023-04-01T10:20:36.221Z,29.26
2023-04-01T10:21:36.230Z,29.25
2023-04-01T10:22:36.302Z,29.28
2023-04-01T10:23:36.380Z,29.27
2023-04-01T10:24:36.333Z,29.12
2023-04-01T10:25:36.394Z,29.08
2023-04-01T10:26:36.410Z,29.17
2023-04-01T10:27:36.479Z,28.80
2023-04-01T10:28:36.538Z,28.76
2023-04-01T10:29:36.559Z,29.18
2023-04-01T10:30:36.570Z,29.29
2023-04-01T10:31:36.670Z,29.24
2023-04-01T10:32:36.688Z,29.17
2023-04-01T10:33:36.741Z,29.06
2023-04-01T10:34:36.767Z,29.12
2023-04-01T10:35:37.036Z,28.91
2023-04-01T10:36:36.842Z,28.65
2023-04-01T10:37:36.838Z,28.60
2023-04-01T10:38:36.901Z,28.64
2023-04-01T10:39:36.922Z,28.84
2023-04-01T10:40:36.976Z,28.66
2023-04-01T10:41:37.001Z,28.47
2023-04-01T10:42:37.030Z,28.67
2023-04-01T10:43:37.090Z,28.79
2023-04-01T10:44:37.139Z,28.94
2023-04-01T10:45:37.241Z,28.80
2023-04-01T10:46:37.292Z,29.03
2023-04-01T10:47:37.241Z,28.93
2023-04-01T10:48:37.266Z,28.91
2023-04-01T10:49:37.261Z,28.99
2023-04-01T10:50:37.394Z,29.01
2023-04-01T10:51:37.448Z,28.92
2023-04-01T10:52:37.392Z,28.94
2023-04-01T10:53:37.408Z,28.65
2023-04-01T10:54:37.511Z,28.78
2023-04-01T10:55:37.529Z,28.55
2023-04-01T10:56:37.564Z,28.37
2023-04-01T10:57:37.650Z,28.34
2023-04-01T10:58:37.637Z,28.29
2023-04-01T10:59:37.703Z,28.33
2023-04-01T11:00:37.720Z,28.47
2023-04-01T11:01:37.804Z,28.22
2023-04-01T11:02:37.848Z,28.14
2023-04-01T11:03:37.902Z,28.06
2023-04-01T11:04:37.836Z,28.18
2023-04-01T11:05:37.920Z,28.43
2023-04-01T11:06:37.915Z,28.56
2023-04-01T11:07:37.922Z,28.58
2023-04-01T11:08:37.963Z,28.28
2023-04-01T11:09:38.016Z,28.54
2023-04-01T11:10:38.019Z,28.70
2023-04-01T11:11:38.078Z,28.66
2023-04-01T11:12:38.088Z,28.56
2023-04-01T11:13:38.106Z,28.73
2023-04-01T11:14:38.101Z,28.72
2023-04-01T11:15:38.192Z,28.75
2023-04-01T11:16:38.191Z,28.58
2023-04-01T11:17:38.234Z,28.65
2023-04-01T11:18:38.246Z,28.61
2023-04-01T11:19:38.260Z,28.67
2023-04-01T11:20:38.282Z,28.57
2023-04-01T11:21:38.271Z,28.59
2023-04-01T11:22:38.304Z,28.36
2023-04-01T11:23:38.289Z,28.35
2023-04-01T11:24:38.320Z,28.32
2023-04-01T11:25:38.371Z,28.30
2023-04-01T11:26:38.375Z,28.36
2023-04-01T11:27:39.633Z,28.26
2023-04-01T11:28:38.410Z,28.27
2023-04-01T11:29:42.251Z,28.38
2023-04-01T11:30:39.444Z,28.41
2023-04-01T11:31:38.425Z,28.57
2023-04-01T11:32:38.502Z,28.57
2023-04-01T11:33:38.368Z,28.33
2023-04-01T11:34:38.431Z,28.35
2023-04-01T11:35:38.391Z,28.06
2023-04-01T11:36:38.475Z,28.06
2023-04-01T11:37:38.392Z,28.35
2023-04-01T11:38:38.359Z,27.97
2023-04-01T11:39:38.358Z,27.97
2023-04-01T11:40:38.379Z,28.06
2023-04-01T11:41:38.349Z,28.05
2023-04-01T11:42:38.349Z,28.32
2023-04-01T11:43:38.324Z,28.37
2023-04-01T11:44:38.326Z,28.18
2023-04-01T11:45:38.326Z,28.16
2023-04-01T11:46:38.409Z,28.11
2023-04-01T11:47:38.305Z,27.98
2023-04-01T11:48:38.334Z,28.24
2023-04-01T11:49:38.303Z,28.41
2023-04-01T11:50:38.299Z,28.12
2023-04-01T11:51:38.309Z,28.34
2023-04-01T11:52:38.289Z,28.30
2023-04-01T11:53:38.357Z,28.02
2023-04-01T11:54:38.401Z,28.14
2023-04-01T11:55:38.386Z,28.24
2023-04-01T11:56:38.393Z,28.39
2023-04-01T11:57:38.403Z,27.98
2023-04-01T11:58:38.424Z,28.17
2023-04-01T11:59:38.444Z,28.13
2023-04-01T12:00:38.486Z,27.88
2023-04-01T12:01:38.502Z,27.86
2023-04-01T12:02:38.640Z,27.86
2023-04-01T12:03:38.718Z,28.01
2023-04-01T12:04:38.679Z,27.91
2023-04-01T12:05:38.657Z,28.21
2023-04-01T12:06:38.666Z,28.25
2023-04-01T12:07:38.664Z,27.99
2023-04-01T12:08:38.743Z,28.06
2023-04-01T12:09:38.796Z,28.12
2023-04-01T12:10:38.801Z,27.71
2023-04-01T12:11:38.934Z,27.64
2023-04-01T12:12:41.531Z,27.70
2023-04-01T12:13:39.849Z,27.63
2023-04-01T12:14:38.853Z,27.77
2023-04-01T12:15:38.801Z,28.01
2023-04-01T12:16:38.849Z,27.83
2023-04-01T12:17:38.819Z,27.69
2023-04-01T12:18:38.815Z,27.82
2023-04-01T12:19:38.790Z,27.76
2023-04-01T12:20:38.811Z,27.83
2023-04-01T12:21:38.862Z,28.09
2023-04-01T12:22:38.774Z,28.08
2023-04-01T12:23:38.772Z,28.15
2023-04-01T12:24:38.777Z,27.74
2023-04-01T12:25:38.783Z,27.98
2023-04-01T12:26:38.737Z,27.88
2023-04-01T12:27:38.787Z,28.17
2023-04-01T12:28:38.878Z,28.30
2023-04-01T12:29:38.937Z,28.16
2023-04-01T12:30:38.981Z,28.07
2023-04-01T12:31:39.045Z,28.02
2023-04-01T12:32:39.076Z,28.09
2023-04-01T12:33:39.115Z,28.03
2023-04-01T12:34:39.152Z,27.85
2023-04-01T12:35:39.244Z,27.77
2023-04-01T12:36:39.223Z,28.03
2023-04-01T12:37:39.323Z,28.33
2023-04-01T12:38:39.353Z,28.56
2023-04-01T12:39:39.396Z,28.25
2023-04-01T12:40:39.479Z,28.08
2023-04-01T12:41:39.501Z,27.81
2023-04-01T12:42:39.572Z,27.94
2023-04-01T12:43:39.607Z,27.57
2023-04-01T12:44:39.626Z,27.90
2023-04-01T12:45:39.696Z,28.04
2023-04-01T12:46:39.732Z,28.00
2023-04-01T12:47:39.862Z,27.91
2023-04-01T12:48:39.867Z,27.81
2023-04-01T12:49:39.876Z,27.74
2023-04-01T12:50:39.946Z,28.30
2023-04-01T12:51:40.021Z,27.84
2023-04-01T12:52:40.160Z,27.68
2023-04-01T12:53:40.121Z,27.77
2023-04-01T12:54:40.199Z,28.29